createdAt,value
2022-08-08T00:00:56.685Z,22.90
2022-08-08T00:03:19.950Z,22.90
2022-08-08T00:06:10.022Z,23.00
2022-08-08T00:09:08.353Z,23.00
2022-08-08T00:12:10.199Z,23.00
2022-08-08T00:14:59.484Z,23.00
2022-08-08T00:18:03.986Z,22.90
2022-08-08T00:20:42.928Z,22.90
2022-08-08T00:23:42.902Z,22.90
2022-08-08T00:26:29.313Z,22.90
2022-08-08T00:29:46.331Z,22.90
2022-08-08T00:32:40.850Z,22.90
2022-08-08T00:35:27.056Z,22.80
2022-08-08T00:38:01.555Z,22.70
2022-08-08T00:41:08.979Z,22.70
2022-08-08T00:43:56.340Z,22.80
2022-08-08T00:46:57.085Z,22.70
2022-08-08T00:49:59.584Z,22.80
2022-08-08T00:52:54.108Z,22.80
2022-08-08T00:55:53.129Z,22.80
2022-08-08T00:58:30.776Z,22.80
2022-08-08T01:01:12.324Z,22.90
2022-08-08T01:04:02.093Z,22.90
2022-08-08T01:07:05.935Z,22.90
2022-08-08T01:10:20.933Z,22.90
2022-08-08T01:13:08.136Z,22.90
2022-08-08T01:16:16.918Z,22.90
2022-08-08T01:19:02.713Z,22.80
2022-08-08T01:22:15.789Z,22.80
2022-08-08T01:25:40.387Z,22.80
2022-08-08T01:28:42.634Z,22.70
2022-08-08T01:32:12.870Z,22.50
2022-08-08T01:34:41.729Z,22.40
2022-08-08T01:37:56.245Z,22.40
2022-08-08T01:40:51.452Z,22.40
2022-08-08T01:43:50.730Z,22.40
2022-08-08T01:46:56.045Z,22.30
2022-08-08T01:50:01.828Z,22.20
2022-08-08T01:52:55.191Z,22.10
2022-08-08T01:56:28.559Z,22.20
2022-08-08T01:59:38.002Z,22.30
2022-08-08T02:02:56.279Z,22.30
2022-08-08T02:05:56.698Z,22.40
2022-08-08T02:08:57.829Z,22.40
2022-08-08T02:11:53.417Z,22.40
2022-08-08T02:14:49.752Z,22.40
2022-08-08T02:17:44.141Z,22.40
2022-08-08T02:21:13.636Z,22.40
2022-08-08T02:24:07.516Z,22.30
2022-08-08T02:27:03.782Z,22.40
2022-08-08T02:30:02.266Z,22.30
2022-08-08T02:33:01.182Z,22.30
2022-08-08T02:36:04.349Z,22.40
2022-08-08T02:38:57.463Z,22.40
2022-08-08T02:42:04.505Z,22.40
2022-08-08T02:45:00.495Z,22.40
2022-08-08T02:47:58.308Z,22.40
2022-08-08T02:51:00.871Z,22.40
2022-08-08T02:53:54.879Z,22.50
2022-08-08T02:57:12.261Z,22.40
2022-08-08T03:00:27.061Z,22.40
2022-08-08T03:05:00.751Z,22.50
2022-08-08T03:06:34.460Z,22.40
2022-08-08T03:09:54.123Z,22.30
2022-08-08T03:13:01.434Z,22.40
2022-08-08T03:16:05.245Z,22.30
2022-08-08T03:19:14.160Z,22.30
2022-08-08T03:21:54.948Z,22.30
2022-08-08T03:24:32.883Z,22.40
2022-08-08T03:27:35.969Z,22.40
2022-08-08T03:30:19.278Z,22.50
2022-08-08T03:33:56.003Z,22.50
2022-08-08T03:36:10.271Z,22.60
2022-08-08T03:38:55.863Z,22.60
2022-08-08T03:42:26.495Z,22.60
2022-08-08T03:44:34.739Z,22.60
2022-08-08T03:47:20.113Z,22.70
2022-08-08T03:49:58.928Z,22.70
2022-08-08T03:52:45.056Z,22.70
2022-08-08T03:55:57.394Z,22.70
2022-08-08T03:58:34.814Z,22.60
2022-08-08T04:01:23.996Z,22.60
2022-08-08T04:04:01.953Z,22.60
2022-08-08T04:06:57.186Z,22.60
2022-08-08T04:09:58.737Z,22.60
2022-08-08T04:12:29.966Z,22.70
2022-08-08T04:15:05.363Z,22.70
2022-08-08T04:17:57.786Z,22.70
2022-08-08T04:20:30.327Z,22.70
2022-08-08T04:23:07.156Z,22.80
2022-08-08T04:25:40.929Z,22.70
2022-08-08T04:28:36.931Z,22.70
2022-08-08T04:31:06.240Z,22.70
2022-08-08T04:33:41.681Z,22.80
2022-08-08T04:36:14.866Z,22.70
2022-08-08T04:38:47.475Z,22.70
2022-08-08T04:41:21.310Z,22.70
2022-08-08T04:43:57.480Z,22.80
2022-08-08T04:46:30.898Z,22.80
2022-08-08T04:49:03.649Z,23.00
2022-08-08T04:51:54.999Z,23.10
2022-08-08T04:54:39.770Z,23.30
2022-08-08T04:57:14.213Z,23.60
2022-08-08T04:59:46.203Z,23.80
2022-08-08T05:02:18.517Z,24.10
2022-08-08T05:04:55.675Z,24.10
2022-08-08T05:07:42.120Z,24.20
2022-08-08T05:10:16.703Z,24.30
2022-08-08T05:13:02.033Z,24.40
2022-08-08T05:16:52.755Z,24.60
2022-08-08T05:18:29.193Z,24.70
2022-08-08T05:21:05.826Z,24.90
2022-08-08T05:23:41.129Z,25.10
2022-08-08T05:26:19.950Z,25.20
2022-08-08T05:28:56.585Z,25.10
2022-08-08T05:32:03.532Z,24.90
2022-08-08T05:34:47.224Z,24.90
2022-08-08T05:37:49.155Z,24.80
2022-08-08T05:40:28.789Z,24.80
2022-08-08T05:43:39.787Z,24.80
2022-08-08T05:46:08.123Z,24.80
2022-08-08T05:48:43.936Z,25.00
2022-08-08T05:51:26.382Z,25.20
2022-08-08T05:54:42.659Z,25.40
2022-08-08T05:56:56.169Z,25.60
2022-08-08T06:00:00.957Z,26.00
2022-08-08T06:02:54.927Z,26.40
2022-08-08T06:05:33.924Z,26.70
2022-08-08T06:08:28.072Z,26.90
2022-08-08T06:11:05.005Z,27.10
2022-08-08T06:13:47.525Z,27.30
2022-08-08T06:16:30.433Z,27.30
2022-08-08T06:19:16.305Z,27.40
2022-08-08T06:21:57.213Z,27.30
2022-08-08T06:24:47.275Z,27.30
2022-08-08T06:27:55.161Z,27.40
2022-08-08T06:30:32.115Z,27.50
2022-08-08T06:33:09.393Z,27.70
2022-08-08T06:36:07.242Z,27.90
2022-08-08T06:38:47.315Z,28.10
2022-08-08T06:41:24.160Z,28.20
2022-08-08T06:44:04.280Z,28.30
2022-08-08T06:46:40.462Z,28.40
2022-08-08T06:49:13.363Z,28.50
2022-08-08T06:51:52.549Z,28.50
2022-08-08T06:54:32.505Z,28.50
2022-08-08T06:57:05.453Z,28.60
2022-08-08T07:00:03.719Z,28.80
2022-08-08T07:02:36.120Z,28.90
2022-08-08T07:05:20.281Z,29.00
2022-08-08T07:08:04.579Z,29.30
2022-08-08T07:10:47.655Z,29.40
2022-08-08T07:13:25.253Z,29.40
2022-08-08T07:16:17.230Z,29.60
2022-08-08T07:19:06.725Z,29.60
2022-08-08T07:22:05.223Z,29.80
2022-08-08T07:25:06.820Z,30.00
2022-08-08T07:28:01.805Z,30.10
2022-08-08T07:30:35.639Z,30.20
2022-08-08T07:33:11.719Z,30.40
2022-08-08T07:35:54.550Z,30.60
2022-08-08T07:38:30.709Z,30.60
2022-08-08T07:41:24.961Z,30.60
2022-08-08T07:44:03.722Z,30.50
2022-08-08T07:46:39.639Z,30.50
2022-08-08T07:49:18.891Z,30.40
2022-08-08T07:51:53.513Z,30.30
2022-08-08T07:54:42.389Z,30.30
2022-08-08T07:57:36.268Z,30.30
2022-08-08T08:00:16.760Z,30.20
2022-08-08T08:03:20.566Z,30.30
2022-08-08T08:06:06.030Z,30.40
2022-08-08T08:09:05.678Z,30.50
2022-08-08T08:11:51.585Z,30.60
2022-08-08T08:14:52.253Z,30.60
2022-08-08T08:17:36.298Z,30.70
2022-08-08T08:20:18.405Z,30.30
2022-08-08T08:22:50.675Z,29.90
2022-08-08T08:25:40.788Z,30.00
2022-08-08T08:28:21.401Z,29.70
2022-08-08T08:31:04.807Z,29.50
2022-08-08T08:33:39.690Z,29.30
2022-08-08T08:36:19.994Z,28.80
2022-08-08T08:38:54.816Z,28.50
2022-08-08T08:41:46.415Z,28.50
2022-08-08T08:44:21.317Z,28.70
2022-08-08T08:46:58.730Z,28.90
2022-08-08T08:49:34.103Z,29.10
2022-08-08T08:52:09.931Z,29.30
2022-08-08T08:54:43.092Z,29.50
2022-08-08T08:57:17.505Z,29.60
2022-08-08T08:59:59.297Z,29.80
2022-08-08T09:02:41.673Z,30.10
2022-08-08T09:05:29.052Z,30.40
2022-08-08T09:08:12.724Z,30.80
2022-08-08T09:10:50.965Z,30.70
2022-08-08T09:13:25.175Z,30.50
2022-08-08T09:16:02.830Z,30.70
2022-08-08T09:18:43.809Z,31.10
2022-08-08T09:21:56.666Z,31.50
2022-08-08T09:24:14.258Z,31.70
2022-08-08T09:27:02.594Z,32.00
2022-08-08T09:30:01.556Z,32.60
2022-08-08T09:32:39.382Z,32.40
2022-08-08T09:35:32.354Z,31.70
2022-08-08T09:38:19.696Z,31.20
2022-08-08T09:40:57.733Z,30.80
2022-08-08T09:43:41.130Z,30.50
2022-08-08T09:46:30.974Z,30.20
2022-08-08T09:49:18.107Z,29.70
2022-08-08T09:52:07.467Z,29.50
2022-08-08T09:54:45.705Z,29.70
2022-08-08T09:57:35.207Z,30.00
2022-08-08T10:00:49.690Z,30.30
2022-08-08T10:03:19.860Z,30.20
2022-08-08T10:05:52.230Z,30.20
2022-08-08T10:08:25.749Z,30.50
2022-08-08T10:11:02.504Z,30.60
2022-08-08T10:14:01.770Z,30.90
2022-08-08T10:16:39.860Z,31.00
2022-08-08T10:19:11.862Z,31.20
2022-08-08T10:21:50.201Z,31.20
2022-08-08T10:24:29.078Z,31.30
2022-08-08T10:27:05.242Z,31.60
2022-08-08T10:30:01.345Z,31.30
2022-08-08T10:32:48.699Z,31.40
2022-08-08T10:36:07.385Z,31.70
2022-08-08T10:38:20.567Z,32.10
2022-08-08T10:40:53.776Z,32.60
2022-08-08T10:43:37.185Z,32.70
2022-08-08T10:46:30.256Z,32.90
2022-08-08T10:49:02.728Z,32.60
2022-08-08T10:51:40.849Z,32.50
2022-08-08T10:54:20.708Z,32.50
2022-08-08T10:57:03.878Z,32.80
2022-08-08T10:59:39.694Z,32.40
2022-08-08T11:02:14.075Z,32.40
2022-08-08T11:04:53.234Z,32.10
2022-08-08T11:07:39.125Z,31.90
2022-08-08T11:10:28.552Z,32.00
2022-08-08T11:16:01.432Z,31.40
2022-08-08T11:18:40.391Z,31.50
2022-08-08T11:21:19.491Z,31.80
2022-08-08T11:24:01.988Z,31.90
2022-08-08T11:26:53.852Z,31.70
2022-08-08T11:29:51.399Z,31.90
2022-08-08T11:32:29.487Z,31.50
2022-08-08T11:35:24.401Z,31.10
2022-08-08T11:38:38.465Z,30.80
2022-08-08T11:40:53.318Z,30.70
2022-08-08T11:43:26.014Z,30.70
2022-08-08T11:46:17.496Z,30.80
2022-08-08T11:48:51.583Z,30.90
2022-08-08T11:51:29.605Z,31.10
2022-08-08T11:54:32.360Z,30.90
2022-08-08T11:57:16.783Z,30.60
2022-08-08T12:00:05.688Z,30.50
2022-08-08T12:02:57.331Z,30.40
2022-08-08T12:05:35.024Z,30.60
2022-08-08T12:08:07.924Z,31.00
2022-08-08T12:10:52.427Z,30.70
2022-08-08T12:13:37.954Z,30.50
2022-08-08T12:16:20.816Z,30.70
2022-08-08T12:19:10.956Z,30.70
2022-08-08T12:22:00.115Z,30.60
2022-08-08T12:24:51.406Z,30.30
2022-08-08T12:27:45.133Z,30.10
2022-08-08T12:30:28.974Z,30.20
2022-08-08T12:33:01.979Z,30.20
2022-08-08T12:35:40.318Z,30.20
2022-08-08T12:38:17.681Z,30.30
2022-08-08T12:40:56.988Z,30.50
2022-08-08T12:43:46.302Z,30.80
2022-08-08T12:46:29.011Z,31.00
2022-08-08T12:52:00.828Z,31.20
2022-08-08T12:54:38.537Z,31.30
2022-08-08T12:57:17.836Z,31.40
2022-08-08T13:00:05.952Z,31.40
2022-08-08T13:02:51.615Z,31.50
2022-08-08T13:05:26.843Z,31.60
2022-08-08T13:08:20.354Z,31.60
2022-08-08T13:10:56.960Z,31.50
2022-08-08T13:13:34.990Z,31.40
2022-08-08T13:16:25.679Z,31.40
2022-08-08T13:19:05.491Z,31.40
2022-08-08T13:21:52.728Z,31.50
2022-08-08T13:24:46.423Z,31.50
2022-08-08T13:27:35.858Z,31.50
2022-08-08T13:30:09.487Z,31.30
2022-08-08T13:32:42.568Z,31.30
2022-08-08T13:35:25.011Z,31.50
2022-08-08T13:38:08.052Z,31.70
2022-08-08T13:40:45.162Z,31.80
2022-08-08T13:43:18.715Z,31.70
2022-08-08T13:45:52.965Z,31.70
2022-08-08T13:48:26.182Z,31.70
2022-08-08T13:51:25.075Z,31.70
2022-08-08T13:54:00.322Z,31.60
2022-08-08T13:56:44.535Z,31.60
2022-08-08T13:59:46.479Z,31.60
2022-08-08T14:02:32.762Z,31.50
2022-08-08T14:05:21.721Z,31.60
2022-08-08T14:07:59.602Z,31.70
2022-08-08T14:10:37.445Z,31.70
2022-08-08T14:13:31.226Z,31.80
2022-08-08T14:16:15.816Z,32.00
2022-08-08T14:19:00.562Z,32.00
2022-08-08T14:21:48.738Z,31.80
2022-08-08T14:24:32.094Z,31.60
2022-08-08T14:27:07.395Z,31.50
2022-08-08T14:29:40.313Z,31.60
2022-08-08T14:32:30.121Z,31.60
2022-08-08T14:35:08.049Z,31.60
2022-08-08T14:37:59.816Z,31.70
2022-08-08T14:40:38.534Z,31.80
2022-08-08T14:43:31.360Z,31.90
2022-08-08T14:46:07.021Z,31.90
2022-08-08T14:48:57.197Z,31.60
2022-08-08T14:51:52.038Z,31.60
2022-08-08T14:54:29.215Z,31.40
2022-08-08T14:57:04.065Z,31.40
2022-08-08T14:59:51.069Z,31.50
2022-08-08T15:02:25.786Z,31.50
2022-08-08T15:05:10.438Z,31.60
2022-08-08T15:07:44.229Z,31.60
2022-08-08T15:10:28.914Z,31.40
2022-08-08T15:13:00.964Z,31.40
2022-08-08T15:16:02.618Z,31.40
2022-08-08T15:18:29.794Z,31.50
2022-08-08T15:21:02.157Z,31.60
2022-08-08T15:23:36.453Z,31.80
2022-08-08T15:26:12.570Z,31.70
2022-08-08T15:28:45.201Z,31.50
2022-08-08T15:31:53.991Z,31.50
2022-08-08T15:34:29.431Z,31.60
2022-08-08T15:37:05.023Z,31.60
2022-08-08T15:39:39.649Z,31.70
2022-08-08T15:42:17.903Z,31.80
2022-08-08T15:45:04.141Z,31.90
2022-08-08T15:47:36.217Z,31.90
2022-08-08T15:50:19.474Z,31.80
2022-08-08T15:52:53.005Z,31.90
2022-08-08T15:55:24.939Z,32.00
2022-08-08T15:57:57.798Z,32.00
2022-08-08T16:00:29.888Z,32.10
2022-08-08T16:03:01.971Z,32.10
2022-08-08T16:05:53.188Z,32.10
2022-08-08T16:08:30.711Z,32.00
2022-08-08T16:13:12.267Z,32.00
2022-08-08T16:13:54.673Z,31.80
2022-08-08T16:16:27.048Z,31.80
2022-08-08T16:19:00.068Z,31.80
2022-08-08T16:21:33.358Z,31.80
2022-08-08T16:24:10.192Z,31.80
2022-08-08T16:26:43.039Z,31.80
2022-08-08T16:29:17.924Z,31.80
2022-08-08T16:31:55.852Z,31.80
2022-08-08T16:34:27.782Z,31.70
2022-08-08T16:36:59.810Z,31.60
2022-08-08T16:40:02.102Z,31.50
2022-08-08T16:42:25.063Z,31.50
2022-08-08T16:44:59.055Z,31.40
2022-08-08T16:47:41.492Z,31.40
2022-08-08T16:50:16.753Z,31.40
2022-08-08T16:55:19.331Z,31.30
2022-08-08T16:55:53.852Z,31.30
2022-08-08T16:58:34.509Z,31.10
2022-08-08T17:01:11.324Z,31.20
2022-08-08T17:04:00.974Z,31.20
2022-08-08T17:06:43.285Z,31.20
2022-08-08T17:09:19.571Z,31.00
2022-08-08T17:11:59.297Z,30.90
2022-08-08T17:14:35.395Z,30.90
2022-08-08T17:17:41.451Z,30.80
2022-08-08T17:20:00.333Z,30.80
2022-08-08T17:22:42.059Z,30.80
2022-08-08T17:25:14.287Z,30.80
2022-08-08T17:27:49.706Z,30.90
2022-08-08T17:30:29.036Z,30.80
2022-08-08T17:34:49.204Z,30.90
2022-08-08T17:36:10.842Z,30.80
2022-08-08T17:38:44.844Z,30.80
2022-08-08T17:41:16.858Z,30.70
2022-08-08T17:44:00.661Z,30.70
2022-08-08T17:46:34.775Z,30.70
2022-08-08T17:49:12.044Z,30.60
2022-08-08T17:51:51.642Z,30.50
2022-08-08T17:54:26.143Z,30.40
2022-08-08T17:57:01.324Z,30.30
2022-08-08T17:59:36.415Z,30.30
2022-08-08T18:02:19.242Z,30.30
2022-08-08T18:04:54.986Z,30.30
2022-08-08T18:08:02.765Z,30.30
2022-08-08T18:10:31.254Z,30.30
2022-08-08T18:13:04.120Z,30.20
2022-08-08T18:15:39.767Z,30.00
2022-08-08T18:18:29.292Z,29.70
2022-08-08T18:21:10.811Z,29.50
2022-08-08T18:23:56.344Z,29.40
2022-08-08T18:26:29.114Z,29.30
2022-08-08T18:29:01.623Z,29.30
2022-08-08T18:31:33.983Z,29.20
2022-08-08T18:34:11.830Z,29.10
2022-08-08T18:36:58.702Z,29.00
2022-08-08T18:39:31.953Z,28.90
2022-08-08T18:42:07.349Z,28.90
2022-08-08T18:44:54.899Z,28.90
2022-08-08T18:47:28.508Z,28.80
2022-08-08T18:50:05.914Z,28.70
2022-08-08T18:52:38.075Z,28.60
2022-08-08T18:55:11.684Z,28.50
2022-08-08T18:57:45.505Z,28.50
2022-08-08T19:00:21.278Z,28.50
2022-08-08T19:03:03.870Z,28.60
2022-08-08T19:05:44.180Z,28.60
2022-08-08T19:08:25.155Z,28.60
2022-08-08T19:11:01.513Z,28.60
2022-08-08T19:13:52.656Z,28.50
2022-08-08T19:16:32.152Z,28.40
2022-08-08T19:19:09.773Z,28.30
2022-08-08T19:21:48.926Z,28.30
2022-08-08T19:24:39.139Z,28.10
2022-08-08T19:27:14.824Z,28.00
2022-08-08T19:29:47.022Z,28.00
2022-08-08T19:32:23.146Z,27.90
2022-08-08T19:34:57.344Z,27.80
2022-08-08T19:37:43.954Z,27.90
2022-08-08T19:40:22.079Z,27.80
2022-08-08T19:43:03.119Z,27.70
2022-08-08T19:45:58.802Z,27.50
2022-08-08T19:48:33.537Z,27.40
2022-08-08T19:51:05.592Z,27.40
2022-08-08T19:53:51.477Z,27.40
2022-08-08T19:56:25.474Z,27.30
2022-08-08T19:58:58.030Z,27.30
2022-08-08T20:01:50.435Z,27.40
2022-08-08T20:04:22.313Z,27.40
2022-08-08T20:06:56.851Z,27.40
2022-08-08T20:09:32.226Z,27.40
2022-08-08T20:12:05.301Z,27.30
2022-08-08T20:14:53.358Z,27.30
2022-08-08T20:17:27.959Z,27.30
2022-08-08T20:20:01.231Z,27.30
2022-08-08T20:22:33.678Z,27.20
2022-08-08T20:25:06.218Z,27.20
2022-08-08T20:27:49.533Z,27.10
2022-08-08T20:30:52.591Z,27.00
2022-08-08T20:35:58.091Z,27.00
2022-08-08T20:38:32.678Z,27.00
2022-08-08T20:41:17.154Z,27.10
2022-08-08T20:43:51.174Z,27.10
2022-08-08T20:46:25.460Z,27.00
2022-08-08T20:48:58.242Z,26.90
2022-08-08T20:51:33.108Z,26.90
2022-08-08T20:54:14.000Z,26.80
2022-08-08T20:57:17.515Z,26.80
2022-08-08T20:59:43.108Z,26.80
2022-08-08T21:02:25.264Z,26.80
2022-08-08T21:05:00.482Z,26.80
2022-08-08T21:08:00.826Z,26.80
2022-08-08T21:10:28.148Z,26.80
2022-08-08T21:13:00.287Z,26.80
2022-08-08T21:16:05.359Z,26.90
2022-08-08T21:18:24.809Z,27.00
2022-08-08T21:20:59.933Z,27.00
2022-08-08T21:24:02.879Z,27.00
2022-08-08T21:26:27.237Z,26.90
2022-08-08T21:29:00.607Z,26.90
2022-08-08T21:31:58.449Z,26.90
2022-08-08T21:34:26.781Z,27.00
2022-08-08T21:37:11.364Z,27.00
2022-08-08T21:39:56.335Z,27.00
2022-08-08T21:42:28.808Z,27.00
2022-08-08T21:45:01.268Z,26.90
2022-08-08T21:48:07.945Z,26.90
2022-08-08T21:50:44.469Z,26.80
2022-08-08T21:54:34.363Z,26.90
2022-08-08T21:56:29.439Z,27.10
2022-08-08T21:59:05.668Z,27.20
2022-08-08T22:01:42.634Z,27.20
2022-08-08T22:04:14.811Z,27.30
2022-08-08T22:06:47.331Z,27.30
2022-08-08T22:09:19.803Z,27.20
2022-08-08T22:12:04.856Z,27.20
2022-08-08T22:14:42.776Z,27.20
2022-08-08T22:17:17.211Z,27.20
2022-08-08T22:20:12.868Z,27.20
2022-08-08T22:22:41.599Z,27.20
2022-08-08T22:25:24.740Z,27.20
2022-08-08T22:28:03.018Z,27.20
2022-08-08T22:30:51.036Z,27.20
2022-08-08T22:34:13.773Z,27.10
2022-08-08T22:36:17.588Z,27.10
2022-08-08T22:39:06.593Z,27.00
2022-08-08T22:41:39.225Z,27.00
2022-08-08T22:44:11.296Z,27.00
2022-08-08T22:46:45.093Z,26.90
2022-08-08T22:49:17.975Z,27.00
2022-08-08T22:51:52.141Z,26.90
2022-08-08T22:54:32.025Z,26.90
2022-08-08T22:57:18.436Z,26.90
2022-08-08T22:59:59.676Z,26.90
2022-08-08T23:02:31.756Z,26.90
2022-08-08T23:05:07.605Z,26.90
2022-08-08T23:07:56.830Z,26.80
2022-08-08T23:10:29.805Z,26.80
2022-08-08T23:13:01.827Z,26.80
2022-08-08T23:16:38.946Z,26.70
2022-08-08T23:18:29.082Z,26.70
2022-08-08T23:21:04.560Z,26.70
2022-08-08T23:23:48.255Z,26.70
2022-08-08T23:26:26.387Z,26.70
2022-08-08T23:28:58.489Z,26.70
2022-08-08T23:31:36.714Z,26.60
2022-08-08T23:34:16.889Z,26.60
2022-08-08T23:36:57.977Z,26.60
2022-08-08T23:39:41.766Z,26.50
2022-08-08T23:42:22.765Z,26.60
2022-08-08T23:44:55.021Z,26.50
2022-08-08T23:49:05.327Z,26.60
2022-08-08T23:50:30.907Z,26.50
2022-08-08T23:53:03.524Z,26.40
2022-08-08T23:55:42.203Z,26.40
2022-08-08T23:58:31.958Z,26.40
